sensor_id;sensor_type;location;lat;lon;timestamp;P1;durP1;ratioP1;P2;durP2;ratioP2
38715;SDS011;24833;49.324;8.694;2024-03-22T00:02:07;3.88;;;3.15;;
38715;SDS011;24833;49.324;8.694;2024-03-22T00:04:35;5.00;;;3.53;;
38715;SDS011;24833;49.324;8.694;2024-03-22T00:07:02;5.53;;;3.72;;
38715;SDS011;24833;49.324;8.694;2024-03-22T00:09:28;4.25;;;3.55;;
38715;SDS011;24833;49.324;8.694;2024-03-22T00:11:55;4.82;;;3.72;;
38715;SDS011;24833;49.324;8.694;2024-03-22T00:14:21;4.40;;;3.60;;
38715;SDS011;24833;49.324;8.694;2024-03-22T00:16:47;4.07;;;3.28;;
38715;SDS011;24833;49.324;8.694;2024-03-22T00:19:13;3.55;;;3.25;;
38715;SDS011;24833;49.324;8.694;2024-03-22T00:21:40;4.10;;;3.58;;
38715;SDS011;24833;49.324;8.694;2024-03-22T00:24:06;5.05;;;3.80;;
38715;SDS011;24833;49.324;8.694;2024-03-22T00:26:32;4.93;;;3.55;;
38715;SDS011;24833;49.324;8.694;2024-03-22T00:28:58;4.50;;;3.15;;
38715;SDS011;24833;49.324;8.694;2024-03-22T00:31:25;4.20;;;3.28;;
38715;SDS011;24833;49.324;8.694;2024-03-22T00:33:51;6.30;;;4.03;;
38715;SDS011;24833;49.324;8.694;2024-03-22T00:36:20;5.28;;;3.33;;
38715;SDS011;24833;49.324;8.694;2024-03-22T00:38:50;4.90;;;3.63;;
38715;SDS011;24833;49.324;8.694;2024-03-22T00:41:16;4.97;;;3.53;;
38715;SDS011;24833;49.324;8.694;2024-03-22T00:43:42;5.65;;;3.55;;
38715;SDS011;24833;49.324;8.694;2024-03-22T00:46:09;5.65;;;3.35;;
38715;SDS011;24833;49.324;8.694;2024-03-22T00:48:35;4.82;;;3.40;;
38715;SDS011;24833;49.324;8.694;2024-03-22T00:51:02;4.45;;;3.63;;
38715;SDS011;24833;49.324;8.694;2024-03-22T00:53:29;5.32;;;3.53;;
38715;SDS011;24833;49.324;8.694;2024-03-22T00:55:56;3.97;;;3.58;;
38715;SDS011;24833;49.324;8.694;2024-03-22T00:58:29;4.15;;;3.35;;
38715;SDS011;24833;49.324;8.694;2024-03-22T01:00:55;3.63;;;3.33;;
38715;SDS011;24833;49.324;8.694;2024-03-22T01:03:22;4.43;;;3.70;;
38715;SDS011;24833;49.324;8.694;2024-03-22T01:05:48;4.05;;;3.42;;
38715;SDS011;24833;49.324;8.694;2024-03-22T01:08:15;5.07;;;3.45;;
38715;SDS011;24833;49.324;8.694;2024-03-22T01:10:42;4.70;;;3.53;;
38715;SDS011;24833;49.324;8.694;2024-03-22T01:13:08;4.07;;;3.63;;
38715;SDS011;24833;49.324;8.694;2024-03-22T01:15:35;5.15;;;3.88;;
38715;SDS011;24833;49.324;8.694;2024-03-22T01:18:04;4.20;;;3.55;;
38715;SDS011;24833;49.324;8.694;2024-03-22T01:20:33;4.88;;;3.67;;
38715;SDS011;24833;49.324;8.694;2024-03-22T01:23:02;5.18;;;3.72;;
38715;SDS011;24833;49.324;8.694;2024-03-22T01:25:30;5.05;;;3.88;;
38715;SDS011;24833;49.324;8.694;2024-03-22T01:27:56;4.93;;;4.00;;
38715;SDS011;24833;49.324;8.694;2024-03-22T01:30:22;5.15;;;3.78;;
38715;SDS011;24833;49.324;8.694;2024-03-22T01:32:49;4.25;;;3.70;;
38715;SDS011;24833;49.324;8.694;2024-03-22T01:35:15;4.95;;;4.18;;
38715;SDS011;24833;49.324;8.694;2024-03-22T01:37:44;4.85;;;3.78;;
38715;SDS011;24833;49.324;8.694;2024-03-22T01:40:11;4.85;;;4.00;;
38715;SDS011;24833;49.324;8.694;2024-03-22T01:42:41;5.03;;;4.03;;
38715;SDS011;24833;49.324;8.694;2024-03-22T01:45:07;5.35;;;3.92;;
38715;SDS011;24833;49.324;8.694;2024-03-22T01:47:33;5.95;;;4.03;;
38715;SDS011;24833;49.324;8.694;2024-03-22T01:50:00;5.78;;;4.07;;
38715;SDS011;24833;49.324;8.694;2024-03-22T01:52:27;5.95;;;4.35;;
38715;SDS011;24833;49.324;8.694;2024-03-22T01:54:53;5.43;;;4.07;;
38715;SDS011;24833;49.324;8.694;2024-03-22T01:57:19;5.18;;;4.28;;
38715;SDS011;24833;49.324;8.694;2024-03-22T01:59:45;5.35;;;4.15;;
38715;SDS011;24833;49.324;8.694;2024-03-22T02:02:15;4.55;;;3.92;;
38715;SDS011;24833;49.324;8.694;2024-03-22T02:04:41;5.65;;;4.20;;
38715;SDS011;24833;49.324;8.694;2024-03-22T02:07:07;5.07;;;4.25;;
38715;SDS011;24833;49.324;8.694;2024-03-22T02:09:33;4.50;;;3.78;;
38715;SDS011;24833;49.324;8.694;2024-03-22T02:12:00;4.65;;;3.72;;
38715;SDS011;24833;49.324;8.694;2024-03-22T02:14:27;5.68;;;3.85;;
38715;SDS011;24833;49.324;8.694;2024-03-22T02:16:53;5.32;;;3.50;;
38715;SDS011;24833;49.324;8.694;2024-03-22T02:19:19;3.85;;;3.40;;
38715;SDS011;24833;49.324;8.694;2024-03-22T02:21:45;6.57;;;3.00;;
38715;SDS011;24833;49.324;8.694;2024-03-22T02:24:12;3.88;;;3.00;;
38715;SDS011;24833;49.324;8.694;2024-03-22T02:26:38;3.35;;;3.05;;
38715;SDS011;24833;49.324;8.694;2024-03-22T02:29:05;3.80;;;3.40;;
38715;SDS011;24833;49.324;8.694;2024-03-22T02:31:34;4.53;;;3.03;;
38715;SDS011;24833;49.324;8.694;2024-03-22T02:34:00;4.22;;;3.15;;
38715;SDS011;24833;49.324;8.694;2024-03-22T02:36:26;3.17;;;2.88;;
38715;SDS011;24833;49.324;8.694;2024-03-22T02:38:53;4.80;;;3.30;;
38715;SDS011;24833;49.324;8.694;2024-03-22T02:41:20;3.38;;;2.90;;
38715;SDS011;24833;49.324;8.694;2024-03-22T02:43:47;4.30;;;3.13;;
38715;SDS011;24833;49.324;8.694;2024-03-22T02:46:13;5.40;;;3.17;;
38715;SDS011;24833;49.324;8.694;2024-03-22T02:48:39;3.80;;;2.72;;
38715;SDS011;24833;49.324;8.694;2024-03-22T02:51:06;5.00;;;3.60;;
38715;SDS011;24833;49.324;8.694;2024-03-22T02:53:32;3.42;;;2.72;;
38715;SDS011;24833;49.324;8.694;2024-03-22T02:56:01;2.88;;;2.53;;
38715;SDS011;24833;49.324;8.694;2024-03-22T02:58:27;3.72;;;2.72;;
38715;SDS011;24833;49.324;8.694;2024-03-22T03:00:56;3.08;;;2.70;;
38715;SDS011;24833;49.324;8.694;2024-03-22T03:03:22;3.08;;;2.72;;
38715;SDS011;24833;49.324;8.694;2024-03-22T03:05:49;3.97;;;3.05;;
38715;SDS011;24833;49.324;8.694;2024-03-22T03:08:15;4.15;;;2.97;;
38715;SDS011;24833;49.324;8.694;2024-03-22T03:10:41;3.78;;;2.88;;
38715;SDS011;24833;49.324;8.694;2024-03-22T03:13:14;3.28;;;2.72;;
38715;SDS011;24833;49.324;8.694;2024-03-22T03:15:40;3.17;;;2.65;;
38715;SDS011;24833;49.324;8.694;2024-03-22T03:18:06;4.65;;;2.75;;
38715;SDS011;24833;49.324;8.694;2024-03-22T03:20:32;3.78;;;3.10;;
38715;SDS011;24833;49.324;8.694;2024-03-22T03:22:58;3.70;;;2.80;;
38715;SDS011;24833;49.324;8.694;2024-03-22T03:25:28;3.33;;;2.97;;
38715;SDS011;24833;49.324;8.694;2024-03-22T03:27:54;3.95;;;3.13;;
38715;SDS011;24833;49.324;8.694;2024-03-22T03:30:20;3.85;;;3.15;;
38715;SDS011;24833;49.324;8.694;2024-03-22T03:32:48;3.72;;;3.13;;
38715;SDS011;24833;49.324;8.694;2024-03-22T03:35:15;4.18;;;3.28;;
38715;SDS011;24833;49.324;8.694;2024-03-22T03:37:41;4.15;;;3.20;;
38715;SDS011;24833;49.324;8.694;2024-03-22T03:40:07;5.65;;;3.53;;
38715;SDS011;24833;49.324;8.694;2024-03-22T03:42:34;3.85;;;2.97;;
38715;SDS011;24833;49.324;8.694;2024-03-22T03:45:00;3.42;;;2.72;;
38715;SDS011;24833;49.324;8.694;2024-03-22T03:47:29;4.22;;;3.00;;
38715;SDS011;24833;49.324;8.694;2024-03-22T03:49:55;4.20;;;2.95;;
38715;SDS011;24833;49.324;8.694;2024-03-22T03:52:22;5.75;;;3.20;;
38715;SDS011;24833;49.324;8.694;2024-03-22T03:54:48;3.72;;;3.17;;
38715;SDS011;24833;49.324;8.694;2024-03-22T03:57:14;3.35;;;2.72;;
38715;SDS011;24833;49.324;8.694;2024-03-22T03:59:44;3.63;;;3.05;;
38715;SDS011;24833;49.324;8.694;2024-03-22T04:02:10;3.60;;;3.08;;
38715;SDS011;24833;49.324;8.694;2024-03-22T04:04:37;3.38;;;3.08;;
38715;SDS011;24833;49.324;8.694;2024-03-22T04:07:03;4.15;;;3.38;;
38715;SDS011;24833;49.324;8.694;2024-03-22T04:09:33;3.42;;;2.83;;
38715;SDS011;24833;49.324;8.694;2024-03-22T04:12:00;3.75;;;2.85;;
38715;SDS011;24833;49.324;8.694;2024-03-22T04:14:26;4.47;;;3.33;;
38715;SDS011;24833;49.324;8.694;2024-03-22T04:16:52;3.97;;;3.33;;
38715;SDS011;24833;49.324;8.694;2024-03-22T04:19:21;3.60;;;3.10;;
38715;SDS011;24833;49.324;8.694;2024-03-22T04:21:50;4.32;;;3.38;;
38715;SDS011;24833;49.324;8.694;2024-03-22T04:24:17;4.53;;;3.30;;
38715;SDS011;24833;49.324;8.694;2024-03-22T04:26:43;3.53;;;2.97;;
38715;SDS011;24833;49.324;8.694;2024-03-22T04:29:09;4.95;;;3.25;;
38715;SDS011;24833;49.324;8.694;2024-03-22T04:31:36;3.60;;;3.25;;
38715;SDS011;24833;49.324;8.694;2024-03-22T04:34:07;3.83;;;3.30;;
38715;SDS011;24833;49.324;8.694;2024-03-22T04:36:34;3.67;;;3.20;;
38715;SDS011;24833;49.324;8.694;2024-03-22T04:39:03;3.47;;;3.03;;
38715;SDS011;24833;49.324;8.694;2024-03-22T04:41:29;4.22;;;3.17;;
38715;SDS011;24833;49.324;8.694;2024-03-22T04:43:55;3.60;;;3.00;;
38715;SDS011;24833;49.324;8.694;2024-03-22T04:46:21;4.13;;;3.45;;
38715;SDS011;24833;49.324;8.694;2024-03-22T04:48:47;4.30;;;3.13;;
38715;SDS011;24833;49.324;8.694;2024-03-22T04:51:14;3.90;;;3.42;;
38715;SDS011;24833;49.324;8.694;2024-03-22T04:53:40;3.55;;;3.25;;
38715;SDS011;24833;49.324;8.694;2024-03-22T04:56:06;4.03;;;3.17;;
38715;SDS011;24833;49.324;8.694;2024-03-22T04:58:33;4.10;;;3.20;;
38715;SDS011;24833;49.324;8.694;2024-03-22T05:00:59;3.42;;;3.00;;
38715;SDS011;24833;49.324;8.694;2024-03-22T05:03:26;4.45;;;3.55;;
38715;SDS011;24833;49.324;8.694;2024-03-22T05:05:52;4.57;;;3.08;;
38715;SDS011;24833;49.324;8.694;2024-03-22T05:08:19;4.68;;;2.92;;
38715;SDS011;24833;49.324;8.694;2024-03-22T05:10:45;3.17;;;2.88;;
38715;SDS011;24833;49.324;8.694;2024-03-22T05:13:11;3.63;;;3.20;;
38715;SDS011;24833;49.324;8.694;2024-03-22T05:15:38;3.60;;;3.17;;
38715;SDS011;24833;49.324;8.694;2024-03-22T05:18:04;3.53;;;3.10;;
38715;SDS011;24833;49.324;8.694;2024-03-22T05:20:30;4.63;;;3.30;;
38715;SDS011;24833;49.324;8.694;2024-03-22T05:22:59;4.18;;;3.22;;
38715;SDS011;24833;49.324;8.694;2024-03-22T05:25:25;5.22;;;3.70;;
38715;SDS011;24833;49.324;8.694;2024-03-22T05:27:52;4.00;;;3.08;;
38715;SDS011;24833;49.324;8.694;2024-03-22T05:30:18;3.97;;;3.17;;
38715;SDS011;24833;49.324;8.694;2024-03-22T05:32:44;3.35;;;2.80;;
38715;SDS011;24833;49.324;8.694;2024-03-22T05:35:10;3.83;;;3.25;;
38715;SDS011;24833;49.324;8.694;2024-03-22T05:37:36;3.92;;;3.20;;
38715;SDS011;24833;49.324;8.694;2024-03-22T05:40:03;3.65;;;2.83;;
38715;SDS011;24833;49.324;8.694;2024-03-22T05:42:30;4.53;;;3.45;;
38715;SDS011;24833;49.324;8.694;2024-03-22T05:44:56;3.33;;;2.78;;
38715;SDS011;24833;49.324;8.694;2024-03-22T05:47:24;3.50;;;2.92;;
38715;SDS011;24833;49.324;8.694;2024-03-22T05:49:53;3.35;;;2.80;;
38715;SDS011;24833;49.324;8.694;2024-03-22T05:52:19;3.05;;;2.75;;
38715;SDS011;24833;49.324;8.694;2024-03-22T05:54:45;3.78;;;3.20;;
38715;SDS011;24833;49.324;8.694;2024-03-22T05:57:12;4.10;;;3.70;;
38715;SDS011;24833;49.324;8.694;2024-03-22T05:59:38;4.53;;;3.50;;
38715;SDS011;24833;49.324;8.694;2024-03-22T06:02:05;4.95;;;3.20;;
38715;SDS011;24833;49.324;8.694;2024-03-22T06:04:31;3.20;;;2.90;;
38715;SDS011;24833;49.324;8.694;2024-03-22T06:06:57;3.92;;;2.97;;
38715;SDS011;24833;49.324;8.694;2024-03-22T06:09:28;4.15;;;2.53;;
38715;SDS011;24833;49.324;8.694;2024-03-22T06:12:17;3.53;;;3.05;;
38715;SDS011;24833;49.324;8.694;2024-03-22T06:14:43;3.60;;;3.30;;
38715;SDS011;24833;49.324;8.694;2024-03-22T06:17:12;4.13;;;3.00;;
38715;SDS011;24833;49.324;8.694;2024-03-22T06:19:38;4.13;;;2.90;;
38715;SDS011;24833;49.324;8.694;2024-03-22T06:22:05;3.85;;;3.22;;
38715;SDS011;24833;49.324;8.694;2024-03-22T06:24:31;2.85;;;2.47;;
38715;SDS011;24833;49.324;8.694;2024-03-22T06:26:58;4.43;;;3.08;;
38715;SDS011;24833;49.324;8.694;2024-03-22T06:29:24;3.28;;;2.92;;
38715;SDS011;24833;49.324;8.694;2024-03-22T06:31:50;4.70;;;3.28;;
38715;SDS011;24833;49.324;8.694;2024-03-22T06:34:17;4.60;;;2.95;;
38715;SDS011;24833;49.324;8.694;2024-03-22T06:36:44;5.43;;;3.70;;
38715;SDS011;24833;49.324;8.694;2024-03-22T06:39:10;3.80;;;3.40;;
38715;SDS011;24833;49.324;8.694;2024-03-22T06:41:36;3.78;;;2.92;;
38715;SDS011;24833;49.324;8.694;2024-03-22T06:44:03;3.75;;;3.13;;
38715;SDS011;24833;49.324;8.694;2024-03-22T06:46:29;4.68;;;3.70;;
38715;SDS011;24833;49.324;8.694;2024-03-22T06:48:55;3.65;;;3.33;;
38715;SDS011;24833;49.324;8.694;2024-03-22T06:51:23;4.07;;;3.67;;
38715;SDS011;24833;49.324;8.694;2024-03-22T06:53:49;3.30;;;3.00;;
38715;SDS011;24833;49.324;8.694;2024-03-22T06:56:16;3.55;;;3.22;;
38715;SDS011;24833;49.324;8.694;2024-03-22T06:58:43;3.85;;;2.72;;
38715;SDS011;24833;49.324;8.694;2024-03-22T07:01:09;4.60;;;3.67;;
38715;SDS011;24833;49.324;8.694;2024-03-22T07:03:36;4.38;;;3.50;;
38715;SDS011;24833;49.324;8.694;2024-03-22T07:06:02;4.43;;;3.85;;
38715;SDS011;24833;49.324;8.694;2024-03-22T07:08:28;4.07;;;3.55;;
38715;SDS011;24833;49.324;8.694;2024-03-22T07:10:54;4.70;;;3.30;;
38715;SDS011;24833;49.324;8.694;2024-03-22T07:13:21;4.57;;;3.67;;
38715;SDS011;24833;49.324;8.694;2024-03-22T07:15:47;4.97;;;3.78;;
38715;SDS011;24833;49.324;8.694;2024-03-22T07:18:14;4.30;;;3.40;;
38715;SDS011;24833;49.324;8.694;2024-03-22T07:20:41;5.43;;;3.67;;
38715;SDS011;24833;49.324;8.694;2024-03-22T07:23:08;4.05;;;3.22;;
38715;SDS011;24833;49.324;8.694;2024-03-22T07:25:34;3.80;;;3.40;;
38715;SDS011;24833;49.324;8.694;2024-03-22T07:28:00;4.88;;;3.92;;
38715;SDS011;24833;49.324;8.694;2024-03-22T07:30:27;4.20;;;3.65;;
38715;SDS011;24833;49.324;8.694;2024-03-22T07:32:53;3.90;;;3.55;;
38715;SDS011;24833;49.324;8.694;2024-03-22T07:35:19;3.85;;;3.20;;
38715;SDS011;24833;49.324;8.694;2024-03-22T07:37:45;3.53;;;3.20;;
38715;SDS011;24833;49.324;8.694;2024-03-22T07:40:11;6.70;;;3.67;;
38715;SDS011;24833;49.324;8.694;2024-03-22T07:42:37;4.75;;;3.92;;
38715;SDS011;24833;49.324;8.694;2024-03-22T07:45:04;5.15;;;3.63;;
38715;SDS011;24833;49.324;8.694;2024-03-22T07:47:30;4.55;;;3.75;;
38715;SDS011;24833;49.324;8.694;2024-03-22T07:49:56;4.85;;;3.60;;
38715;SDS011;24833;49.324;8.694;2024-03-22T07:52:22;5.97;;;3.90;;
38715;SDS011;24833;49.324;8.694;2024-03-22T07:54:49;3.90;;;3.55;;
38715;SDS011;24833;49.324;8.694;2024-03-22T07:57:19;4.88;;;3.40;;
38715;SDS011;24833;49.324;8.694;2024-03-22T07:59:46;3.72;;;3.33;;
38715;SDS011;24833;49.324;8.694;2024-03-22T08:02:12;3.28;;;2.97;;
38715;SDS011;24833;49.324;8.694;2024-03-22T08:04:39;3.63;;;3.28;;
38715;SDS011;24833;49.324;8.694;2024-03-22T08:07:05;4.90;;;3.40;;
38715;SDS011;24833;49.324;8.694;2024-03-22T08:09:31;4.38;;;3.30;;
38715;SDS011;24833;49.324;8.694;2024-03-22T08:11:57;3.45;;;2.92;;
38715;SDS011;24833;49.324;8.694;2024-03-22T08:14:24;3.85;;;2.83;;
38715;SDS011;24833;49.324;8.694;2024-03-22T08:16:50;3.80;;;3.15;;
38715;SDS011;24833;49.324;8.694;2024-03-22T08:19:16;3.60;;;3.00;;
38715;SDS011;24833;49.324;8.694;2024-03-22T08:21:42;3.65;;;2.97;;
38715;SDS011;24833;49.324;8.694;2024-03-22T08:24:08;3.17;;;2.85;;
38715;SDS011;24833;49.324;8.694;2024-03-22T08:26:34;3.22;;;2.70;;
38715;SDS011;24833;49.324;8.694;2024-03-22T08:29:01;2.78;;;2.47;;
38715;SDS011;24833;49.324;8.694;2024-03-22T08:31:27;3.28;;;2.97;;
38715;SDS011;24833;49.324;8.694;2024-03-22T08:33:54;2.75;;;2.53;;
38715;SDS011;24833;49.324;8.694;2024-03-22T08:36:22;3.55;;;3.25;;
38715;SDS011;24833;49.324;8.694;2024-03-22T08:38:49;3.65;;;3.08;;
38715;SDS011;24833;49.324;8.694;2024-03-22T08:41:15;2.75;;;2.35;;
38715;SDS011;24833;49.324;8.694;2024-03-22T08:43:41;2.63;;;2.42;;
38715;SDS011;24833;49.324;8.694;2024-03-22T08:46:07;3.08;;;2.80;;
38715;SDS011;24833;49.324;8.694;2024-03-22T08:48:34;3.50;;;2.95;;
38715;SDS011;24833;49.324;8.694;2024-03-22T08:51:00;4.05;;;2.75;;
38715;SDS011;24833;49.324;8.694;2024-03-22T08:53:27;3.08;;;2.58;;
38715;SDS011;24833;49.324;8.694;2024-03-22T08:55:53;3.83;;;3.20;;
38715;SDS011;24833;49.324;8.694;2024-03-22T08:58:19;2.70;;;2.50;;
38715;SDS011;24833;49.324;8.694;2024-03-22T09:00:45;2.60;;;2.40;;
38715;SDS011;24833;49.324;8.694;2024-03-22T09:03:12;2.55;;;2.35;;
38715;SDS011;24833;49.324;8.694;2024-03-22T09:05:40;2.80;;;2.33;;
38715;SDS011;24833;49.324;8.694;2024-03-22T09:08:06;2.60;;;2.08;;
38715;SDS011;24833;49.324;8.694;2024-03-22T09:10:32;2.25;;;2.05;;
38715;SDS011;24833;49.324;8.694;2024-03-22T09:12:59;2.15;;;1.90;;
38715;SDS011;24833;49.324;8.694;2024-03-22T09:15:25;2.72;;;2.40;;
38715;SDS011;24833;49.324;8.694;2024-03-22T09:17:51;2.20;;;2.00;;
38715;SDS011;24833;49.324;8.694;2024-03-22T09:20:18;3.20;;;2.15;;
38715;SDS011;24833;49.324;8.694;2024-03-22T09:22:44;2.35;;;2.15;;
38715;SDS011;24833;49.324;8.694;2024-03-22T09:25:11;2.40;;;2.20;;
38715;SDS011;24833;49.324;8.694;2024-03-22T09:27:37;4.45;;;2.05;;
38715;SDS011;24833;49.324;8.694;2024-03-22T09:30:04;2.83;;;2.15;;
38715;SDS011;24833;49.324;8.694;2024-03-22T09:32:31;2.47;;;1.92;;
38715;SDS011;24833;49.324;8.694;2024-03-22T09:34:57;2.40;;;1.95;;
38715;SDS011;24833;49.324;8.694;2024-03-22T09:37:23;2.35;;;2.00;;
38715;SDS011;24833;49.324;8.694;2024-03-22T09:39:49;2.22;;;2.00;;
38715;SDS011;24833;49.324;8.694;2024-03-22T09:42:16;3.53;;;2.53;;
38715;SDS011;24833;49.324;8.694;2024-03-22T09:44:46;4.22;;;2.70;;
38715;SDS011;24833;49.324;8.694;2024-03-22T09:47:14;2.78;;;2.30;;
38715;SDS011;24833;49.324;8.694;2024-03-22T09:49:41;2.53;;;2.05;;
38715;SDS011;24833;49.324;8.694;2024-03-22T09:52:18;2.65;;;2.10;;
38715;SDS011;24833;49.324;8.694;2024-03-22T09:54:46;3.20;;;2.25;;
38715;SDS011;24833;49.324;8.694;2024-03-22T09:57:13;3.13;;;2.55;;
38715;SDS011;24833;49.324;8.694;2024-03-22T09:59:46;2.20;;;2.00;;
38715;SDS011;24833;49.324;8.694;2024-03-22T10:02:12;2.30;;;2.10;;
38715;SDS011;24833;49.324;8.694;2024-03-22T10:04:39;2.83;;;2.40;;
38715;SDS011;24833;49.324;8.694;2024-03-22T10:07:06;2.90;;;2.33;;
38715;SDS011;24833;49.324;8.694;2024-03-22T10:09:36;2.88;;;2.15;;
38715;SDS011;24833;49.324;8.694;2024-03-22T10:12:03;1.88;;;1.77;;
38715;SDS011;24833;49.324;8.694;2024-03-22T10:14:29;2.53;;;2.30;;
38715;SDS011;24833;49.324;8.694;2024-03-22T10:16:56;2.60;;;2.35;;
38715;SDS011;24833;49.324;8.694;2024-03-22T10:19:23;2.13;;;1.92;;
38715;SDS011;24833;49.324;8.694;2024-03-22T10:22:02;3.47;;;2.25;;
38715;SDS011;24833;49.324;8.694;2024-03-22T10:26:58;2.83;;;2.08;;
38715;SDS011;24833;49.324;8.694;2024-03-22T10:29:25;2.25;;;2.05;;
38715;SDS011;24833;49.324;8.694;2024-03-22T10:31:52;3.33;;;2.33;;
38715;SDS011;24833;49.324;8.694;2024-03-22T10:34:22;2.22;;;2.05;;
38715;SDS011;24833;49.324;8.694;2024-03-22T10:36:50;2.67;;;2.13;;
38715;SDS011;24833;49.324;8.694;2024-03-22T10:39:17;4.00;;;2.25;;
38715;SDS011;24833;49.324;8.694;2024-03-22T10:41:47;2.80;;;2.53;;
38715;SDS011;24833;49.324;8.694;2024-03-22T10:44:17;2.45;;;2.15;;
38715;SDS011;24833;49.324;8.694;2024-03-22T10:46:44;2.25;;;2.05;;
38715;SDS011;24833;49.324;8.694;2024-03-22T10:49:15;2.13;;;1.88;;
38715;SDS011;24833;49.324;8.694;2024-03-22T10:51:44;4.45;;;2.17;;
38715;SDS011;24833;49.324;8.694;2024-03-22T10:54:24;2.78;;;2.00;;
38715;SDS011;24833;49.324;8.694;2024-03-22T10:56:57;3.33;;;2.20;;
38715;SDS011;24833;49.324;8.694;2024-03-22T10:59:24;2.95;;;2.55;;
38715;SDS011;24833;49.324;8.694;2024-03-22T11:01:51;2.20;;;2.00;;
38715;SDS011;24833;49.324;8.694;2024-03-22T11:04:21;2.47;;;1.95;;
38715;SDS011;24833;49.324;8.694;2024-03-22T11:06:52;2.22;;;2.03;;
38715;SDS011;24833;49.324;8.694;2024-03-22T11:11:54;2.10;;;1.90;;
38715;SDS011;24833;49.324;8.694;2024-03-22T11:14:27;2.15;;;1.90;;
38715;SDS011;24833;49.324;8.694;2024-03-22T11:16:54;3.20;;;2.53;;
38715;SDS011;24833;49.324;8.694;2024-03-22T11:19:20;2.90;;;2.30;;
38715;SDS011;24833;49.324;8.694;2024-03-22T11:21:47;3.47;;;2.55;;
38715;SDS011;24833;49.324;8.694;2024-03-22T11:24:13;2.90;;;2.15;;
38715;SDS011;24833;49.324;8.694;2024-03-22T11:26:40;3.60;;;2.42;;
38715;SDS011;24833;49.324;8.694;2024-03-22T11:29:09;2.70;;;2.30;;
38715;SDS011;24833;49.324;8.694;2024-03-22T11:31:35;2.95;;;2.30;;
38715;SDS011;24833;49.324;8.694;2024-03-22T11:34:02;2.83;;;2.15;;
38715;SDS011;24833;49.324;8.694;2024-03-22T11:36:29;3.75;;;2.25;;
38715;SDS011;24833;49.324;8.694;2024-03-22T11:38:55;4.18;;;2.55;;
38715;SDS011;24833;49.324;8.694;2024-03-22T11:41:26;2.47;;;1.80;;
38715;SDS011;24833;49.324;8.694;2024-03-22T11:43:55;2.25;;;2.00;;
38715;SDS011;24833;49.324;8.694;2024-03-22T11:46:23;3.08;;;2.45;;
38715;SDS011;24833;49.324;8.694;2024-03-22T11:48:55;2.80;;;2.38;;
38715;SDS011;24833;49.324;8.694;2024-03-22T11:51:22;3.30;;;2.42;;
38715;SDS011;24833;49.324;8.694;2024-03-22T11:53:51;3.50;;;2.17;;
38715;SDS011;24833;49.324;8.694;2024-03-22T11:56:19;3.15;;;2.15;;
38715;SDS011;24833;49.324;8.694;2024-03-22T11:58:46;2.55;;;2.00;;
38715;SDS011;24833;49.324;8.694;2024-03-22T12:01:17;2.15;;;1.65;;
38715;SDS011;24833;49.324;8.694;2024-03-22T12:03:46;2.22;;;2.00;;
38715;SDS011;24833;49.324;8.694;2024-03-22T12:06:12;2.30;;;1.52;;
38715;SDS011;24833;49.324;8.694;2024-03-22T12:08:41;1.60;;;1.50;;
38715;SDS011;24833;49.324;8.694;2024-03-22T12:11:10;1.77;;;1.50;;
38715;SDS011;24833;49.324;8.694;2024-03-22T12:13:37;2.08;;;1.88;;
38715;SDS011;24833;49.324;8.694;2024-03-22T12:16:04;1.75;;;1.55;;
38715;SDS011;24833;49.324;8.694;2024-03-22T12:18:32;1.52;;;1.42;;
38715;SDS011;24833;49.324;8.694;2024-03-22T12:20:59;2.80;;;1.80;;
38715;SDS011;24833;49.324;8.694;2024-03-22T12:23:26;2.58;;;1.85;;
38715;SDS011;24833;49.324;8.694;2024-03-22T12:25:52;3.33;;;1.75;;
38715;SDS011;24833;49.324;8.694;2024-03-22T12:28:18;3.15;;;1.95;;
38715;SDS011;24833;49.324;8.694;2024-03-22T12:30:46;2.38;;;1.88;;
38715;SDS011;24833;49.324;8.694;2024-03-22T12:33:13;2.13;;;1.83;;
38715;SDS011;24833;49.324;8.694;2024-03-22T12:35:40;2.80;;;1.55;;
38715;SDS011;24833;49.324;8.694;2024-03-22T12:38:07;1.90;;;1.65;;
38715;SDS011;24833;49.324;8.694;2024-03-22T12:40:36;2.85;;;1.80;;
38715;SDS011;24833;49.324;8.694;2024-03-22T12:43:03;2.17;;;1.85;;
38715;SDS011;24833;49.324;8.694;2024-03-22T12:45:30;2.10;;;1.60;;
38715;SDS011;24833;49.324;8.694;2024-03-22T12:47:56;3.60;;;1.88;;
38715;SDS011;24833;49.324;8.694;2024-03-22T12:50:22;1.60;;;1.50;;
38715;SDS011;24833;49.324;8.694;2024-03-22T12:52:48;3.45;;;1.98;;
38715;SDS011;24833;49.324;8.694;2024-03-22T12:55:16;2.25;;;2.00;;
38715;SDS011;24833;49.324;8.694;2024-03-22T12:57:43;2.25;;;1.50;;
38715;SDS011;24833;49.324;8.694;2024-03-22T13:00:10;3.13;;;1.88;;
38715;SDS011;24833;49.324;8.694;2024-03-22T13:02:44;1.90;;;1.60;;
38715;SDS011;24833;49.324;8.694;2024-03-22T13:05:11;1.88;;;1.17;;
38715;SDS011;24833;49.324;8.694;2024-03-22T13:07:38;1.48;;;1.38;;
38715;SDS011;24833;49.324;8.694;2024-03-22T13:10:04;1.65;;;1.42;;
38715;SDS011;24833;49.324;8.694;2024-03-22T13:12:31;1.83;;;1.15;;
38715;SDS011;24833;49.324;8.694;2024-03-22T13:14:59;2.17;;;1.52;;
38715;SDS011;24833;49.324;8.694;2024-03-22T13:17:30;2.65;;;1.50;;
38715;SDS011;24833;49.324;8.694;2024-03-22T13:19:56;1.63;;;1.42;;
38715;SDS011;24833;49.324;8.694;2024-03-22T13:22:23;3.10;;;1.65;;
38715;SDS011;24833;49.324;8.694;2024-03-22T13:24:49;1.63;;;1.52;;
38715;SDS011;24833;49.324;8.694;2024-03-22T13:27:16;1.80;;;1.60;;
38715;SDS011;24833;49.324;8.694;2024-03-22T13:29:45;3.40;;;1.33;;
38715;SDS011;24833;49.324;8.694;2024-03-22T13:32:11;1.55;;;1.45;;
38715;SDS011;24833;49.324;8.694;2024-03-22T13:34:38;1.42;;;1.33;;
38715;SDS011;24833;49.324;8.694;2024-03-22T13:37:04;1.77;;;1.30;;
38715;SDS011;24833;49.324;8.694;2024-03-22T13:39:31;1.45;;;1.30;;
38715;SDS011;24833;49.324;8.694;2024-03-22T13:41:58;1.73;;;1.20;;
38715;SDS011;24833;49.324;8.694;2024-03-22T13:44:24;1.50;;;1.30;;
38715;SDS011;24833;49.324;8.694;2024-03-22T13:46:50;1.10;;;1.05;;
38715;SDS011;24833;49.324;8.694;2024-03-22T13:49:17;2.17;;;1.48;;
38715;SDS011;24833;49.324;8.694;2024-03-22T13:51:49;1.63;;;1.20;;
38715;SDS011;24833;49.324;8.694;2024-03-22T13:54:15;1.45;;;1.05;;
38715;SDS011;24833;49.324;8.694;2024-03-22T13:56:42;2.97;;;1.45;;
38715;SDS011;24833;49.324;8.694;2024-03-22T13:59:08;1.63;;;1.20;;
38715;SDS011;24833;49.324;8.694;2024-03-22T14:01:35;1.42;;;1.13;;
38715;SDS011;24833;49.324;8.694;2024-03-22T14:04:02;2.95;;;1.42;;
38715;SDS011;24833;49.324;8.694;2024-03-22T14:06:30;1.67;;;1.23;;
38715;SDS011;24833;49.324;8.694;2024-03-22T14:08:57;1.25;;;1.15;;
38715;SDS011;24833;49.324;8.694;2024-03-22T14:11:28;1.25;;;1.08;;
38715;SDS011;24833;49.324;8.694;2024-03-22T14:13:59;1.20;;;1.10;;
38715;SDS011;24833;49.324;8.694;2024-03-22T14:16:25;1.15;;;1.00;;
38715;SDS011;24833;49.324;8.694;2024-03-22T14:18:52;2.75;;;1.13;;
38715;SDS011;24833;49.324;8.694;2024-03-22T14:21:18;1.92;;;1.15;;
38715;SDS011;24833;49.324;8.694;2024-03-22T14:23:46;2.00;;;1.52;;
38715;SDS011;24833;49.324;8.694;2024-03-22T14:26:12;1.38;;;1.08;;
38715;SDS011;24833;49.324;8.694;2024-03-22T14:28:39;1.17;;;1.05;;
38715;SDS011;24833;49.324;8.694;2024-03-22T14:31:06;2.70;;;1.42;;
38715;SDS011;24833;49.324;8.694;2024-03-22T14:33:34;1.88;;;1.27;;
38715;SDS011;24833;49.324;8.694;2024-03-22T14:36:01;1.25;;;1.10;;
38715;SDS011;24833;49.324;8.694;2024-03-22T14:38:28;0.95;;;0.95;;
38715;SDS011;24833;49.324;8.694;2024-03-22T14:40:55;1.17;;;1.08;;
38715;SDS011;24833;49.324;8.694;2024-03-22T14:43:25;1.73;;;1.20;;
38715;SDS011;24833;49.324;8.694;2024-03-22T14:48:19;1.90;;;1.20;;
38715;SDS011;24833;49.324;8.694;2024-03-22T14:50:46;1.25;;;1.13;;
38715;SDS011;24833;49.324;8.694;2024-03-22T14:53:14;1.42;;;1.00;;
38715;SDS011;24833;49.324;8.694;2024-03-22T14:55:54;1.38;;;1.27;;